Terminal Aerodrome Forecast
Issued by NWS

Home | Current Version | Previous Version | Text Only | Print | Product List | Glossary On
Versions: 1 2 3 4 5 6 7 8 9 10 11 12 13 14 15 16 17 18 19 20 21 22 23 24 25 26 27 28 29 30 31 32 33 34 35 36 37 38 39 40 41 42 43 44 45 46 47 48 49 50
000
FTUS45 KBOU 191728
TAFAPA
TAF
KAPA 191728Z 1918/2018 01010KT P6SM SCT025 OVC040
     FM192200 02009KT P6SM BKN060 BKN100
     FM200300 VRB05KT P6SM BKN050 BKN100
     FM200600 03007KT P6SM VCSH SCT015 OVC030
      TEMPO 2008/2012 1SM -SHSN OVC012
     FM201700 14006KT P6SM BKN040 OVC080=

USA.gov is the U.S. government's official web portal to all federal, state and local government web resources and services.